»·PEaware :: N626N KIFP-KBUR

N626N :: KIFP-KBUR

FLIGHT INFORMATION

Flight Status: Arrived
Operator: Privately registered:
United States
More flights under this callsign
Pilot: Demetrius I. (3301)
Aircraft: BEECH AIRCRAFT DUKE
(BE60)
More flights by this aircraft type
Origin: KIFP Laughlin/Bullhead Intl
United States
Destination: KBUR Bob Hope-Burbank
United States
More flights between these airports :: More routes between these airports
Route: +EED V12 HEC LYNXX8
File this flight plan on PilotEdge
Remarks:
Altitude:
(Current/Filed)
100ft
Speed:
(Current/Filed)
220kts
Departed: 19-Sep-14 02:44 PM
Arrived: 19-Sep-14 03:43 PM
Distance/Time
Traveled:
196nm/0:58
Distance/Time
To Go:
Arrived

Flight Plot

Page will automatically refresh every two minutes.


Map Options




Map Legend


Flown Route
Filed Route
Departure Airport
Arrival Airport
Navaid (VOR, NDB)
Fix

Horizontal Profiles

Position Reports

Time Latitude Longitude Heading Altitude Ground
Speed
19-Sep-14 14:28 35.164670 -114.556579 266 698ft 0kts
19-Sep-14 14:29 35.164670 -114.556579 266 698ft 0kts
19-Sep-14 14:30 35.164670 -114.556579 266 698ft 0kts
19-Sep-14 14:31 35.164670 -114.556579 266 698ft 0kts
19-Sep-14 14:32 35.164670 -114.556579 266 698ft 0kts
19-Sep-14 14:33 35.164670 -114.556579 266 698ft 0kts
19-Sep-14 14:34 35.164670 -114.556579 266 698ft 0kts
19-Sep-14 14:35 35.164670 -114.556579 266 698ft 0kts
19-Sep-14 14:36 35.164670 -114.556579 266 698ft 0kts
19-Sep-14 14:37 35.164670 -114.556579 266 698ft 0kts
19-Sep-14 14:39 35.164145 -114.556369 249 698ft 0kts
19-Sep-14 14:40 35.164721 -114.557441 299 698ft 3kts
19-Sep-14 14:41 35.165157 -114.558921 358 698ft 6kts
19-Sep-14 14:42 35.167552 -114.559664 267 698ft 0kts
19-Sep-14 14:43 35.158048 -114.559770 178 1270ft 116kts
19-Sep-14 14:44 35.115689 -114.555078 174 4564ft 180kts
19-Sep-14 14:45 35.065893 -114.544510 164 7438ft 203kts
19-Sep-14 14:46 35.008838 -114.527703 168 9980ft 203kts
19-Sep-14 14:47 34.953184 -114.514852 169 11941ft 204kts
19-Sep-14 14:48 34.882259 -114.499343 170 10006ft 255kts
19-Sep-14 14:49 34.811811 -114.484082 169 10004ft 255kts
19-Sep-14 14:50 34.751558 -114.510648 248 10003ft 261kts
19-Sep-14 14:51 34.759079 -114.599948 278 9999ft 266kts
19-Sep-14 14:52 34.768038 -114.689405 272 9998ft 264kts
19-Sep-14 14:53 34.772088 -114.779683 270 10000ft 264kts
19-Sep-14 14:54 34.774528 -114.870013 269 10003ft 264kts
19-Sep-14 14:55 34.776473 -114.959617 269 10002ft 264kts
19-Sep-14 14:56 34.778253 -115.049624 269 10004ft 264kts
19-Sep-14 14:57 34.779931 -115.139382 269 10010ft 264kts
19-Sep-14 14:58 34.781543 -115.229291 269 10017ft 264kts
19-Sep-14 14:59 34.783078 -115.318511 269 10027ft 264kts
19-Sep-14 15:00 34.784561 -115.408872 269 10036ft 264kts
19-Sep-14 15:01 34.785975 -115.498968 269 10048ft 264kts
19-Sep-14 15:02 34.787329 -115.589140 269 10057ft 265kts
19-Sep-14 15:03 34.788603 -115.678722 269 10069ft 264kts
19-Sep-14 15:04 34.789813 -115.768288 269 10078ft 264kts
19-Sep-14 15:05 34.790963 -115.858772 269 10086ft 265kts
19-Sep-14 15:06 34.792055 -115.949306 269 10093ft 265kts
19-Sep-14 15:07 34.793071 -116.039728 270 10098ft 265kts
19-Sep-14 15:08 34.794028 -116.130060 270 10096ft 265kts
19-Sep-14 15:09 34.794902 -116.219685 270 10150ft 264kts
19-Sep-14 15:10 34.795725 -116.310251 270 10145ft 265kts
19-Sep-14 15:11 34.796494 -116.400838 270 10139ft 265kts
19-Sep-14 15:12 34.793422 -116.491375 264 10130ft 265kts
19-Sep-14 15:13 34.785379 -116.581465 263 10112ft 265kts
19-Sep-14 15:14 34.776735 -116.670485 263 10108ft 264kts
19-Sep-14 15:15 34.767881 -116.760372 262 10101ft 265kts
19-Sep-14 15:16 34.759075 -116.849036 262 10072ft 265kts
19-Sep-14 15:17 34.749882 -116.940431 263 10025ft 265kts
19-Sep-14 15:17 34.742339 -117.015029 262 10027ft 265kts
19-Sep-14 15:18 34.733221 -117.104628 262 10040ft 265kts
19-Sep-14 15:19 34.724011 -117.194468 262 10043ft 266kts
19-Sep-14 15:20 34.714724 -117.284404 262 10040ft 266kts
19-Sep-14 15:21 34.705373 -117.374310 262 10029ft 265kts
19-Sep-14 15:22 34.695995 -117.463823 262 10030ft 265kts
19-Sep-14 15:23 34.686523 -117.553568 262 10026ft 266kts
19-Sep-14 15:24 34.676949 -117.643692 262 9999ft 267kts
19-Sep-14 15:25 34.667343 -117.733497 262 9993ft 267kts
19-Sep-14 15:26 34.657675 -117.823321 262 9992ft 267kts
19-Sep-14 15:27 34.647898 -117.913033 262 9995ft 268kts
19-Sep-14 15:28 34.637766 -118.005157 263 8992ft 277kts
19-Sep-14 15:29 34.623244 -118.096329 256 8028ft 264kts
19-Sep-14 15:30 34.605050 -118.181294 255 8001ft 257kts
19-Sep-14 15:31 34.585904 -118.267815 255 8002ft 264kts
19-Sep-14 15:32 34.566613 -118.354127 255 8011ft 263kts
19-Sep-14 15:33 34.545351 -118.439473 236 7737ft 263kts
19-Sep-14 15:34 34.478410 -118.467487 184 6306ft 256kts
19-Sep-14 15:35 34.407713 -118.474916 187 5001ft 248kts
19-Sep-14 15:36 34.339348 -118.491006 192 4385ft 255kts
19-Sep-14 15:37 34.273555 -118.490263 137 3343ft 199kts
19-Sep-14 15:38 34.244675 -118.422899 107 3157ft 233kts
19-Sep-14 15:39 34.227994 -118.366947 144 1432ft 142kts
19-Sep-14 15:40 34.198017 -118.356491 167 781ft 41kts
19-Sep-14 15:41 34.196750 -118.357765 295 781ft 10kts
19-Sep-14 15:42 34.198878 -118.360394 270 781ft 20kts
19-Sep-14 15:43 34.200039 -118.364408 354 781ft 4kts
19-Sep-14 15:45 34.200045 -118.364465 144 781ft 0kts
19-Sep-14 15:46 34.200045 -118.364465 144 781ft 0kts
19-Sep-14 15:47 34.200045 -118.364465 144 781ft 0kts
19-Sep-14 15:48 34.200045 -118.364465 144 781ft 0kts
19-Sep-14 15:49 34.200045 -118.364465 144 781ft 0kts
19-Sep-14 15:50 34.200045 -118.364465 144 781ft 0kts

Navigation Log

Ident Type
Flight plan parsing failed, navigation log unavailable